LFMT/MPL METAR and TAF weather

Enter ICAO airport designator
Station Type Date Time Source
LFMT METAR 2022/06/28 16:00 UTC NOAA

LFMT 281600Z AUTO 15005KT 100V180 CAVOK 34/13 Q1011 NOSIG


Station Type Date Time Source
LFMT Decoded METAR 2022/06/28 16:00 UTC NOAA

Montpellier, France (LFMT) 43-35N 003-58E 6M
Jun 28, 2022 - 12:00 PM EDT / 2022.06.28 1600 UTC
Wind: from the SSE (150 degrees) at 6 MPH (5 KT) (direction variable):0
Visibility: greater than 7 mile(s):0
Temperature: 93 F (34 C)
Dew Point: 55 F (13 C)
Relative Humidity: 28%
Pressure (altimeter): 29.85 in. Hg (1011 hPa)
ob: LFMT 281600Z AUTO 15005KT 100V180 CAVOK 34/13 Q1011 NOSIG
cycle: 16

Station Type Date Time Source
LFMT TAF 2022/06/28 15:26 UTC NOAA

TAF LFMT 281400Z 2815/2915 VRB06KT 9999 SCT075
BECMG 2909/2911 19012KT PROB30 2913/2915 20015G25KT

Example: see airport list